Time;durP1;ratioP1;P1;durP2;ratioP2;P2;SDS_P1;SDS_P2;PMS_P1;PMS_P2;Temp;Humidity;BMP_temperature;BMP_pressure;BME280_temperature;BME280_humidity;BME280_pressure;Samples;Min_cycle;Max_cycle;Signal;HPM_P1;HPM_P2
2021/09/02 00:00:07;;;;;;;26.27;12.47;;;12.70;99.90;;;13.72;100.00;99143.00;5050881;28;20472;-79
2021/09/02 00:02:35;;;;;;;37.10;13.93;;;12.70;99.90;;;13.69;100.00;99135.47;5050157;28;20583;-78
2021/09/02 00:05:05;;;;;;;24.50;11.77;;;12.70;99.90;;;13.68;100.00;99139.06;5055378;28;20452;-78
2021/09/02 00:07:34;;;;;;;26.83;12.93;;;12.60;99.90;;;13.55;100.00;99135.28;5045979;28;20607;-79
2021/09/02 00:10:04;;;;;;;25.90;12.83;;;12.40;99.90;;;13.58;100.00;99128.84;5052183;28;20514;-79
2021/09/02 00:12:34;;;;;;;34.77;12.50;;;12.50;99.90;;;13.54;100.00;99138.06;5051585;28;20988;-79
2021/09/02 00:15:04;;;;;;;33.63;13.00;;;12.40;99.90;;;13.50;100.00;99134.19;5054825;28;21000;-79
2021/09/02 00:17:34;;;;;;;25.77;13.73;;;12.30;99.90;;;13.51;100.00;99134.00;5047261;28;20540;-79
2021/09/02 00:20:04;;;;;;;27.47;13.50;;;12.40;99.90;;;13.46;100.00;99136.34;5051672;28;20934;-79
2021/09/02 00:22:33;;;;;;;24.37;12.60;;;12.30;99.90;;;13.39;100.00;99127.56;5053489;28;20554;-79
2021/09/02 00:25:02;;;;;;;27.50;12.80;;;12.20;99.90;;;13.36;100.00;99124.47;5055681;28;20455;-78
2021/09/02 00:27:31;;;;;;;27.13;12.27;;;12.20;99.90;;;13.32;100.00;99128.44;5049646;28;20457;-79
2021/09/02 00:30:01;;;;;;;28.37;13.67;;;12.20;99.90;;;13.32;100.00;99128.44;5062739;28;20478;-79
2021/09/02 00:32:29;;;;;;;29.97;14.73;;;12.20;99.90;;;13.33;100.00;99130.06;5049426;28;20949;-78
2021/09/02 00:34:57;;;;;;;24.40;11.47;;;12.20;99.90;;;13.24;100.00;99126.69;5055682;28;20529;-79
2021/09/02 00:37:26;;;;;;;25.47;12.43;;;12.10;99.90;;;13.14;100.00;99127.91;5051567;28;20547;-79
2021/09/02 00:39:55;;;;;;;26.93;12.60;;;11.90;99.90;;;13.07;100.00;99127.78;5052838;28;20927;-79
2021/09/02 00:42:24;;;;;;;21.43;12.10;;;11.80;99.90;;;13.12;100.00;99122.84;5052121;28;20531;-78
2021/09/02 00:44:53;;;;;;;25.23;12.43;;;11.90;99.90;;;13.13;100.00;99123.66;5051128;28;20465;-79
2021/09/02 00:47:23;;;;;;;25.37;12.53;;;12.10;99.90;;;13.15;100.00;99125.13;5047184;28;20528;-78
2021/09/02 00:49:54;;;;;;;26.30;12.70;;;12.10;99.90;;;13.12;100.00;99122.84;5048027;28;20465;-78
2021/09/02 00:52:27;;;;;;;32.60;13.37;;;12.00;99.90;;;13.14;100.00;99118.25;5049856;28;20461;-78
2021/09/02 00:55:00;;;;;;;30.57;13.50;;;12.00;99.90;;;13.11;100.00;99115.97;5045981;28;20570;-78
2021/09/02 00:57:32;;;;;;;27.10;13.13;;;11.90;99.90;;;13.06;100.00;99119.09;5052549;28;20444;-78
2021/09/02 01:00:06;;;;;;;24.83;12.47;;;11.90;99.90;;;13.05;100.00;99114.03;5047722;28;20500;-79
2021/09/02 01:02:36;;;;;;;24.67;11.87;;;11.80;99.90;;;13.03;100.00;99110.75;5043438;28;20490;-78
2021/09/02 01:05:07;;;;;;;26.30;13.50;;;11.80;99.90;;;12.94;100.00;99112.63;5042686;28;20493;-78
2021/09/02 01:07:36;;;;;;;31.97;14.03;;;11.70;99.90;;;12.90;100.00;99107.91;5049111;28;20500;-78
2021/09/02 01:10:07;;;;;;;24.87;12.80;;;11.70;99.90;;;12.88;100.00;99101.97;5047144;28;20496;-79
2021/09/02 01:12:39;;;;;;;18.90;11.83;;;11.70;99.90;;;12.92;100.00;99098.03;5047982;28;20437;-79
2021/09/02 01:15:12;;;;;;;24.50;12.37;;;11.80;99.90;;;12.91;100.00;99099.03;5047037;28;20454;-79
2021/09/02 01:17:45;;;;;;;20.27;11.33;;;11.80;99.90;;;12.92;100.00;99100.66;5043579;28;20929;-78
2021/09/02 01:20:17;;;;;;;31.53;12.70;;;11.80;99.90;;;12.88;100.00;99091.47;5048754;28;20453;-78
2021/09/02 01:22:48;;;;;;;24.67;11.40;;;11.80;99.90;;;12.92;100.00;99098.03;5046632;28;20506;-78
2021/09/02 01:25:21;;;;;;;23.70;12.50;;;11.80;99.90;;;12.78;100.00;99093.53;5043358;28;20538;-79
2021/09/02 01:27:52;;;;;;;25.83;12.30;;;11.60;99.90;;;12.74;100.00;99093.06;5042997;28;20450;-79
2021/09/02 01:30:22;;;;;;;22.53;11.97;;;11.50;99.90;;;12.71;100.00;99092.59;5049508;28;20456;-79
2021/09/02 01:32:54;;;;;;;22.23;11.93;;;11.60;99.90;;;12.57;100.00;99094.97;5040552;28;20523;-79
2021/09/02 01:35:23;;;;;;;20.93;12.20;;;11.40;99.90;;;12.57;100.00;99097.59;5058994;28;20456;-78
2021/09/02 01:37:54;;;;;;;22.23;10.73;;;11.40;99.90;;;12.65;100.00;99099.38;5048950;28;20515;-79
2021/09/02 01:40:30;;;;;;;24.30;11.70;;;11.50;99.90;;;12.63;100.00;99086.41;5053050;28;20997;-78
2021/09/02 01:42:58;;;;;;;21.43;9.80;;;11.50;99.90;;;12.63;100.00;99094.28;5055307;28;20492;-78
2021/09/02 01:45:27;;;;;;;21.67;11.67;;;11.50;99.90;;;12.61;100.00;99088.41;5048438;28;21204;-79
2021/09/02 01:47:57;;;;;;;21.77;10.90;;;11.50;99.90;;;12.63;100.00;99090.88;5047300;28;20465;-79
2021/09/02 01:50:29;;;;;;;19.57;10.20;;;11.50;99.90;;;12.55;100.00;99088.28;5048208;28;20519;-78
2021/09/02 01:53:01;;;;;;;18.90;10.20;;;11.40;99.90;;;12.54;100.00;99084.00;5039314;28;20474;-78
2021/09/02 01:55:31;;;;;;;22.70;11.30;;;11.40;99.90;;;12.44;100.00;99089.50;5050469;28;20491;-78
2021/09/02 01:58:00;;;;;;;27.30;11.60;;;11.30;99.90;;;12.42;100.00;99088.03;5050851;28;21037;-79
2021/09/02 02:00:28;;;;;;;26.13;10.90;;;11.30;99.90;;;12.39;100.00;99085.75;5052573;28;20520;-78
2021/09/02 02:03:00;;;;;;;27.20;10.20;;;11.40;99.90;;;12.32;100.00;99076.94;5049967;28;20491;-79
2021/09/02 02:05:30;;;;;;;20.97;10.83;;;11.20;99.90;;;12.27;100.00;99080.09;5056639;28;20953;-79
2021/09/02 02:07:59;;;;;;;20.80;11.37;;;11.10;99.90;;;12.27;100.00;99080.09;5045359;28;20500;-78
2021/09/02 02:10:27;;;;;;;18.00;9.83;;;11.20;99.90;;;12.24;100.00;99079.59;5046523;28;20493;-78
2021/09/02 02:13:00;;;;;;;22.10;9.33;;;11.10;99.90;;;12.23;100.00;99080.59;5042602;28;20950;-78
2021/09/02 02:15:30;;;;;;;17.97;9.47;;;11.10;99.90;;;12.26;100.00;99075.00;5046170;28;20468;-79
2021/09/02 02:17:59;;;;;;;15.53;8.63;;;11.10;99.90;;;12.23;100.00;99076.16;5047796;28;20465;-78
2021/09/02 02:20:28;;;;;;;16.07;9.13;;;11.00;99.90;;;12.20;100.00;99081.75;5045375;28;20519;-79
2021/09/02 02:22:57;;;;;;;16.40;9.50;;;11.00;99.90;;;12.17;100.00;99079.47;5049904;28;20485;-78
2021/09/02 02:25:25;;;;;;;15.90;9.50;;;11.00;99.90;;;12.15;100.00;99086.69;5045945;28;20855;-79
2021/09/02 02:27:55;;;;;;;18.53;9.50;;;10.90;99.90;;;12.14;100.00;99079.00;5045568;28;20504;-79
2021/09/02 02:30:26;;;;;;;18.27;8.67;;;11.00;99.90;;;12.03;100.00;99077.56;5050227;28;20957;-78
2021/09/02 02:32:54;;;;;;;23.00;9.70;;;10.80;99.90;;;12.11;100.00;99082.78;5047506;28;20461;-79
2021/09/02 02:35:23;;;;;;;21.27;10.13;;;11.00;99.90;;;12.11;100.00;99085.41;5045585;28;20461;-78
2021/09/02 02:37:51;;;;;;;15.00;9.50;;;11.00;99.90;;;12.07;100.00;99073.63;5048217;28;20457;-78
2021/09/02 02:40:20;;;;;;;16.27;8.97;;;10.90;99.90;;;12.00;100.00;99070.06;5053766;28;20522;-79
2021/09/02 02:42:49;;;;;;;20.40;9.50;;;10.70;99.90;;;11.95;100.00;99074.97;5047642;28;21033;-78
2021/09/02 02:45:18;;;;;;;17.60;9.80;;;10.70;99.90;;;11.96;100.00;99068.75;5041628;28;21007;-78
2021/09/02 02:47:47;;;;;;;16.47;9.57;;;10.70;99.90;;;11.97;100.00;99062.53;5037760;28;20519;-79
2021/09/02 02:50:17;;;;;;;16.33;8.90;;;10.80;99.90;;;11.92;100.00;99064.84;5043448;28;20965;-79
2021/09/02 02:52:45;;;;;;;14.73;8.50;;;10.80;99.90;;;11.98;100.00;99072.00;5039447;28;20473;-78
2021/09/02 02:55:14;;;;;;;16.83;8.30;;;10.90;99.90;;;12.06;100.00;99066.75;5048974;28;20965;-79
2021/09/02 02:57:43;;;;;;;14.23;7.83;;;11.00;99.90;;;12.09;100.00;99072.47;5046679;28;20461;-79
2021/09/02 03:00:13;;;;;;;19.90;9.23;;;11.10;99.90;;;12.07;100.00;99069.22;5044277;28;20465;-78
2021/09/02 03:02:41;;;;;;;18.83;9.00;;;11.10;99.90;;;12.02;100.00;99070.69;5043950;28;20532;-79
2021/09/02 03:05:12;;;;;;;26.97;10.23;;;10.90;99.90;;;11.99;100.00;99071.84;5046282;28;21095;-79
2021/09/02 03:07:40;;;;;;;19.93;9.80;;;10.90;99.90;;;12.03;100.00;99070.53;5045444;28;20492;-78
2021/09/02 03:10:10;;;;;;;15.80;7.97;;;11.00;99.90;;;12.04;100.00;99073.97;5044982;28;20542;-79
2021/09/02 03:12:39;;;;;;;24.80;9.10;;;11.00;99.90;;;12.04;100.00;99072.16;5049450;28;20522;-79
2021/09/02 03:15:09;;;;;;;20.00;9.30;;;11.00;99.90;;;12.05;100.00;99065.94;5047366;28;20539;-79
2021/09/02 03:17:38;;;;;;;13.57;8.83;;;11.10;99.90;;;12.04;100.00;99064.28;5048144;28;20878;-78
2021/09/02 03:20:11;;;;;;;17.40;9.37;;;11.10;99.90;;;12.05;100.00;99062.47;5045959;28;20490;-79
2021/09/02 03:22:39;;;;;;;17.60;8.47;;;11.10;99.90;;;12.02;100.00;99070.69;5045725;28;20513;-79
2021/09/02 03:25:10;;;;;;;17.07;8.57;;;11.00;99.90;;;11.98;100.00;99070.22;5051378;28;20553;-78
2021/09/02 03:27:38;;;;;;;16.10;8.43;;;11.00;99.90;;;11.96;100.00;99079.25;5042278;28;20457;-79
2021/09/02 03:30:09;;;;;;;16.57;9.03;;;11.00;99.90;;;11.93;100.00;99074.34;5049416;28;20481;-78
2021/09/02 03:32:38;;;;;;;21.30;8.50;;;10.90;99.90;;;11.87;100.00;99065.34;5047282;28;20973;-78
2021/09/02 03:35:09;;;;;;;18.20;8.40;;;10.80;99.90;;;11.86;100.00;99076.00;5044826;28;20844;-78
2021/09/02 03:37:39;;;;;;;14.97;8.23;;;10.90;99.90;;;11.86;100.00;99076.00;5039590;28;20473;-79
2021/09/02 03:40:09;;;;;;;19.23;8.73;;;10.90;99.90;;;11.87;100.00;99077.66;5046610;28;20474;-79
2021/09/02 03:42:38;;;;;;;16.70;8.70;;;10.90;99.90;;;11.87;100.00;99077.66;5046828;28;20438;-79
2021/09/02 03:47:50;;;;;;;19.63;8.20;;;10.90;99.90;;;11.87;100.00;99067.16;5102664;27;20573;-80
2021/09/02 03:50:19;;;;;;;28.67;8.43;;;10.90;99.90;;;11.86;100.00;99073.38;5088173;28;20447;-80
2021/09/02 03:52:48;;;;;;;17.67;8.57;;;10.90;99.90;;;11.90;100.00;99066.81;5084855;28;20495;-81
2021/09/02 03:55:17;;;;;;;16.63;7.87;;;10.90;99.90;;;11.85;100.00;99069.13;5077067;28;20460;-81
2021/09/02 03:57:45;;;;;;;23.63;8.30;;;10.80;99.90;;;11.80;100.00;99071.47;5075489;28;20541;-80
2021/09/02 04:00:14;;;;;;;15.53;7.57;;;10.80;99.90;;;11.80;100.00;99071.47;5077991;28;20514;-81
2021/09/02 04:02:43;;;;;;;16.30;8.87;;;10.90;99.90;;;11.82;100.00;99074.72;5075608;28;20444;-81
2021/09/02 04:05:13;;;;;;;14.00;8.27;;;10.90;99.90;;;11.84;100.00;99077.97;5078039;28;20448;-81
2021/09/02 04:07:42;;;;;;;12.13;7.87;;;10.80;99.90;;;11.76;100.00;99073.59;5083766;28;20499;-83
2021/09/02 04:10:12;;;;;;;14.37;8.60;;;10.70;99.90;;;11.72;100.00;99072.28;5082572;28;20505;-81
2021/09/02 04:12:41;;;;;;;12.40;7.60;;;10.70;99.90;;;11.67;100.00;99068.50;5075524;28;20468;-81
2021/09/02 04:15:10;;;;;;;9.50;6.80;;;10.70;99.90;;;11.66;100.00;99066.88;5081420;28;20879;-81
2021/09/02 04:17:39;;;;;;;12.90;7.03;;;10.70;99.90;;;11.60;100.00;99066.56;5077569;28;20453;-81
2021/09/02 04:20:08;;;;;;;14.60;7.63;;;10.70;99.90;;;11.59;100.00;99062.28;5080752;28;20933;-82
2021/09/02 04:22:38;;;;;;;14.60;8.57;;;10.60;99.90;;;11.59;100.00;99069.34;5084995;28;20989;-83
2021/09/02 04:25:08;;;;;;;16.30;7.60;;;10.60;99.90;;;11.60;100.00;99071.78;5074979;28;20793;-81
2021/09/02 04:27:37;;;;;;;14.30;7.90;;;10.60;99.90;;;11.60;100.00;99070.97;5083877;28;20501;-81
2021/09/02 04:30:07;;;;;;;13.70;8.33;;;10.60;99.90;;;11.60;100.00;99068.34;5077603;28;20447;-81
2021/09/02 04:32:35;;;;;;;19.43;8.60;;;10.60;99.90;;;11.53;100.00;99076.06;5082645;28;20489;-81
2021/09/02 04:35:05;;;;;;;13.90;7.47;;;10.50;99.90;;;11.45;100.00;99064.81;5068813;28;20497;-81
2021/09/02 04:37:39;;;;;;;11.90;7.67;;;10.40;99.90;;;11.37;100.00;99059.56;5079818;28;20448;-81
2021/09/02 04:40:10;;;;;;;20.83;7.67;;;10.20;99.90;;;11.31;100.00;99063.69;5074406;28;20456;-80
2021/09/02 04:42:39;;;;;;;19.33;7.73;;;10.20;99.90;;;11.29;100.00;99063.03;5080241;28;20483;-81
2021/09/02 04:45:09;;;;;;;16.90;7.20;;;10.20;99.90;;;11.29;100.00;99070.88;5073687;28;20444;-81
2021/09/02 04:47:38;;;;;;;11.77;6.97;;;10.10;99.90;;;11.23;100.00;99070.72;5075705;28;21114;-81
2021/09/02 04:50:11;;;;;;;12.50;8.10;;;10.00;99.90;;;11.13;100.00;99073.53;5074427;28;20853;-80
2021/09/02 04:52:41;;;;;;;13.30;8.03;;;10.00;99.90;;;11.10;100.00;99068.63;5081934;28;20448;-81
2021/09/02 04:55:13;;;;;;;9.80;6.67;;;10.00;99.90;;;11.14;100.00;99074.34;5082423;28;20990;-80
2021/09/02 04:57:42;;;;;;;26.93;7.10;;;10.10;99.90;;;11.11;100.00;99076.28;5068504;28;20461;-80
2021/09/02 05:00:12;;;;;;;17.23;7.37;;;10.00;99.90;;;11.07;100.00;99082.03;5067135;28;20441;-81
2021/09/02 05:02:40;;;;;;;11.73;7.30;;;10.00;99.90;;;11.05;100.00;99076.97;5058582;28;20498;-81
2021/09/02 05:05:09;;;;;;;11.27;6.83;;;9.90;99.90;;;11.02;100.00;99084.31;5064840;28;20535;-82
2021/09/02 05:07:39;;;;;;;12.93;6.87;;;9.90;99.90;;;11.02;100.00;99085.16;5063934;28;20492;-80
2021/09/02 05:10:10;;;;;;;17.10;7.97;;;9.90;99.90;;;10.97;100.00;99089.22;5071264;28;20444;-80
2021/09/02 05:12:38;;;;;;;12.60;7.43;;;9.80;99.90;;;10.96;100.00;99092.84;5072620;28;20787;-80
2021/09/02 05:15:08;;;;;;;14.70;7.37;;;9.90;99.90;;;10.89;100.00;99099.72;5071067;28;20502;-80
2021/09/02 05:17:37;;;;;;;14.80;8.10;;;9.70;99.90;;;10.88;100.00;99090.22;5067263;28;20445;-80
2021/09/02 05:20:08;;;;;;;16.90;8.40;;;9.70;99.90;;;10.89;100.00;99090.06;5069108;28;20462;-81
2021/09/02 05:22:36;;;;;;;12.33;6.17;;;9.70;99.90;;;10.93;100.00;99087.94;5075665;28;20448;-80
2021/09/02 05:25:08;;;;;;;15.07;7.47;;;9.80;99.90;;;10.87;100.00;99094.63;5067272;28;20448;-80
2021/09/02 05:27:36;;;;;;;11.63;6.70;;;9.70;99.90;;;10.85;100.00;99095.78;5072070;28;20492;-80
2021/09/02 05:30:09;;;;;;;11.43;6.83;;;9.70;99.90;;;10.84;100.00;99099.34;5064417;28;20448;-80
2021/09/02 05:32:38;;;;;;;13.27;6.73;;;9.70;99.90;;;10.84;100.00;99101.97;5065310;28;20460;-81
2021/09/02 05:35:08;;;;;;;13.07;7.70;;;9.70;99.90;;;10.88;100.00;99095.44;5066211;28;20441;-80
2021/09/02 05:37:37;;;;;;;13.40;7.50;;;9.80;99.90;;;10.91;100.00;99100.34;5059069;28;20445;-81
2021/09/02 05:40:10;;;;;;;12.30;7.23;;;9.90;99.90;;;10.98;100.00;99106.56;5059355;28;20495;-80
2021/09/02 05:42:39;;;;;;;16.27;7.33;;;10.00;99.90;;;10.98;100.00;99099.53;5065096;28;20464;-81
2021/09/02 05:45:09;;;;;;;13.20;6.90;;;9.90;99.90;;;10.95;100.00;99104.28;5060478;28;20481;-80
2021/09/02 05:47:38;;;;;;;9.37;6.10;;;9.80;99.90;;;10.95;100.00;99097.25;5062832;28;20532;-80
2021/09/02 05:50:08;;;;;;;11.83;7.20;;;9.80;99.90;;;11.02;100.00;99097.41;5061162;28;20446;-81
2021/09/02 05:52:37;;;;;;;13.03;7.70;;;9.90;99.90;;;11.00;100.00;99094.94;5062119;28;20445;-80
2021/09/02 05:55:09;;;;;;;10.40;6.57;;;9.90;99.90;;;11.00;100.00;99094.16;5066737;28;20448;-80
2021/09/02 05:57:42;;;;;;;13.83;7.83;;;9.90;99.90;;;11.07;100.00;99082.84;5064391;28;20543;-80
2021/09/02 06:00:12;;;;;;;12.10;6.90;;;10.00;99.90;;;11.08;100.00;99092.34;5067203;28;20444;-82
2021/09/02 06:02:41;;;;;;;9.57;6.63;;;10.00;99.90;;;11.13;100.00;99085.78;5058711;28;20456;-81
2021/09/02 06:05:11;;;;;;;14.93;7.03;;;10.00;99.90;;;11.16;100.00;99094.13;5065827;28;20532;-80
2021/09/02 06:07:39;;;;;;;8.10;5.67;;;10.10;99.90;;;11.21;100.00;99094.44;5059951;28;20497;-80
2021/09/02 06:10:10;;;;;;;10.93;6.87;;;10.20;99.90;;;11.30;100.00;99085.63;5057018;28;20507;-80
2021/09/02 06:12:39;;;;;;;9.90;6.50;;;10.30;99.90;;;11.37;100.00;99089.22;5058298;28;20445;-81
2021/09/02 06:15:10;;;;;;;10.93;6.67;;;10.30;99.90;;;11.43;100.00;99091.16;5060646;28;20441;-80
2021/09/02 06:17:38;;;;;;;9.53;6.30;;;10.40;99.90;;;11.48;100.00;99088.88;5054511;28;20926;-80
2021/09/02 06:20:09;;;;;;;9.17;6.30;;;10.40;99.90;;;11.53;100.00;99085.72;5060747;28;20925;-80
2021/09/02 06:22:37;;;;;;;11.70;6.60;;;10.50;99.90;;;11.58;100.00;99086.88;5073191;28;20513;-81
2021/09/02 06:25:10;;;;;;;13.03;6.50;;;10.50;99.90;;;11.66;100.00;99082.59;5061990;28;20446;-80
2021/09/02 06:27:39;;;;;;;12.83;6.80;;;10.60;99.90;;;11.68;100.00;99084.06;5063416;28;20537;-81
2021/09/02 06:30:08;;;;;;;9.87;6.13;;;10.60;99.90;;;11.70;100.00;99091.78;5060202;28;20453;-80
2021/09/02 06:32:37;;;;;;;17.03;6.07;;;10.70;99.90;;;11.71;100.00;99088.16;5063336;28;21006;-81
2021/09/02 06:35:08;;;;;;;10.07;6.00;;;10.80;99.90;;;11.71;100.00;99086.38;5065036;28;20506;-81
2021/09/02 06:37:36;;;;;;;11.63;6.70;;;10.80;99.90;;;11.75;100.00;99097.34;5063750;28;20503;-80
2021/09/02 06:40:07;;;;;;;11.80;6.53;;;10.80;99.90;;;11.79;100.00;99098.63;5062654;28;20506;-80
2021/09/02 06:42:36;;;;;;;10.20;6.60;;;10.90;99.90;;;11.84;100.00;99098.94;5062980;28;20506;-81
2021/09/02 06:45:07;;;;;;;13.10;6.00;;;10.90;99.90;;;11.90;100.00;99096.47;5059092;28;20453;-80
2021/09/02 06:47:35;;;;;;;11.70;6.30;;;10.90;99.90;;;11.96;100.00;99098.41;5062655;28;20914;-80
2021/09/02 06:50:08;;;;;;;13.50;7.00;;;11.00;99.90;;;12.01;100.00;99093.47;5060574;28;20440;-80
2021/09/02 06:52:37;;;;;;;11.23;6.67;;;11.10;99.90;;;12.04;100.00;99084.47;5059539;28;20456;-80
2021/09/02 06:55:08;;;;;;;18.17;6.43;;;11.10;99.90;;;12.07;100.00;99084.94;5067014;28;20956;-80
2021/09/02 06:57:40;;;;;;;12.23;6.97;;;11.10;99.90;;;12.15;100.00;99091.13;5058120;28;21040;-80
2021/09/02 07:00:11;;;;;;;11.60;6.67;;;11.20;99.90;;;12.19;100.00;99087.16;5066336;28;20444;-80
2021/09/02 07:02:40;;;;;;;11.30;7.33;;;11.20;99.90;;;12.22;100.00;99092.88;5056676;28;20480;-81
2021/09/02 07:05:11;;;;;;;10.00;6.90;;;11.30;99.90;;;12.22;100.00;99084.22;5065789;28;20514;-80
2021/09/02 07:07:39;;;;;;;11.60;6.87;;;11.30;99.90;;;12.27;100.00;99077.47;5057929;28;20485;-80
2021/09/02 07:10:10;;;;;;;13.90;7.47;;;11.30;99.90;;;12.31;100.00;99078.75;5066374;28;20833;-81
2021/09/02 07:12:40;;;;;;;14.97;7.47;;;11.30;99.90;;;12.35;100.00;99077.44;5059911;28;20449;-80
2021/09/02 07:15:09;;;;;;;14.30;7.80;;;11.40;99.90;;;12.40;100.00;99069.84;5066389;28;20444;-81
2021/09/02 07:17:37;;;;;;;14.93;7.30;;;11.50;99.90;;;12.43;100.00;99069.47;5063417;28;20511;-80
2021/09/02 07:20:07;;;;;;;13.07;7.07;;;11.60;99.90;;;12.51;100.00;99077.31;5063234;28;20494;-80
2021/09/02 07:22:36;;;;;;;11.30;6.33;;;11.70;99.90;;;12.59;100.00;99079.91;5061098;28;20476;-80
2021/09/02 07:25:05;;;;;;;11.50;6.67;;;11.70;99.90;;;12.66;100.00;99068.69;5063167;28;20452;-80
2021/09/02 07:27:34;;;;;;;11.97;6.10;;;11.80;99.90;;;12.73;100.00;99074.88;5061927;28;20452;-80
2021/09/02 07:30:06;;;;;;;10.67;6.30;;;11.90;99.90;;;12.80;100.00;99076.63;5062350;28;20499;-80
2021/09/02 07:32:34;;;;;;;12.70;6.20;;;12.00;99.90;;;12.87;100.00;99071.50;5064009;28;20448;-81
2021/09/02 07:35:03;;;;;;;14.80;6.60;;;12.10;99.90;;;12.94;100.00;99077.66;5059899;28;20453;-81
2021/09/02 07:37:33;;;;;;;9.60;6.20;;;12.10;99.90;;;13.03;100.00;99079.22;5057196;28;20547;-81
2021/09/02 07:40:01;;;;;;;13.30;7.10;;;12.30;99.90;;;13.12;100.00;99086.06;5063071;28;21021;-80
2021/09/02 07:42:30;;;;;;;12.67;6.60;;;12.40;99.90;;;13.21;100.00;99082.38;5057971;28;20872;-81
2021/09/02 07:45:00;;;;;;;8.33;6.07;;;12.60;99.90;;;13.30;100.00;99083.13;5057654;28;20457;-81
2021/09/02 07:47:33;;;;;;;11.50;6.20;;;12.60;99.90;;;13.42;100.00;99086.97;5064302;28;20522;-81
2021/09/02 07:50:02;;;;;;;10.60;6.20;;;12.80;99.90;;;13.51;100.00;99091.94;5058204;28;20441;-80
2021/09/02 07:52:34;;;;;;;8.80;6.20;;;12.90;99.90;;;13.60;100.00;99096.13;5060490;28;20447;-81
2021/09/02 07:55:03;;;;;;;19.80;6.67;;;13.00;99.90;;;13.67;100.00;99085.72;5058782;28;20508;-81
2021/09/02 07:57:31;;;;;;;10.53;5.97;;;13.00;99.90;;;13.75;100.00;99087.41;5059474;28;20865;-81
2021/09/02 08:00:01;;;;;;;10.17;6.50;;;13.10;99.90;;;13.82;100.00;99083.88;5065706;28;20879;-81
2021/09/02 08:02:31;;;;;;;18.67;6.40;;;13.20;99.90;;;13.90;100.00;99081.16;5058152;28;20446;-81
2021/09/02 08:05:00;;;;;;;11.53;6.10;;;13.30;99.90;;;13.99;100.00;99084.50;5063630;28;20448;-81
2021/09/02 08:07:29;;;;;;;12.43;6.33;;;13.40;99.90;;;14.07;100.00;99084.41;5060508;28;21011;-81
2021/09/02 08:09:57;;;;;;;11.27;6.40;;;13.50;99.90;;;14.13;100.00;99080.25;5063510;28;20484;-81
2021/09/02 08:12:26;;;;;;;11.50;5.90;;;13.50;99.90;;;14.21;100.00;99077.50;5063328;28;20526;-81
2021/09/02 08:14:54;;;;;;;10.03;6.00;;;13.60;99.90;;;14.27;100.00;99080.19;5062257;28;20506;-81
2021/09/02 08:17:22;;;;;;;10.83;6.60;;;13.70;99.90;;;14.33;100.00;99081.28;5060766;28;20787;-80
2021/09/02 08:19:52;;;;;;;8.73;5.03;;;13.70;99.90;;;14.37;100.00;99080.75;5063983;28;20440;-81
2021/09/02 08:22:21;;;;;;;10.40;5.53;;;13.70;99.90;;;14.45;100.00;99085.09;5058789;28;20515;-81
2021/09/02 08:24:49;;;;;;;11.70;6.00;;;13.90;99.90;;;14.50;100.00;99083.56;5063477;28;20493;-80
2021/09/02 08:27:18;;;;;;;8.43;5.33;;;13.90;99.90;;;14.57;100.00;99084.44;5058882;28;20445;-80
2021/09/02 08:29:47;;;;;;;9.47;4.73;;;14.00;99.90;;;14.63;100.00;99079.41;5067365;28;20492;-81
2021/09/02 08:32:16;;;;;;;6.70;4.73;;;14.00;99.90;;;14.67;100.00;99085.94;5067911;28;20448;-81
2021/09/02 08:34:44;;;;;;;14.50;5.80;;;14.00;99.90;;;14.72;100.00;99083.53;5064355;28;20806;-81
2021/09/02 08:37:14;;;;;;;7.87;5.20;;;14.10;99.90;;;14.78;100.00;99085.44;5064390;28;20499;-81
2021/09/02 08:39:42;;;;;;;13.23;5.53;;;14.10;99.90;;;14.84;100.00;99082.88;5067318;28;20479;-80
2021/09/02 08:42:15;;;;;;;8.07;5.13;;;14.30;99.90;;;14.88;100.00;99078.88;5062565;28;20514;-81
2021/09/02 08:44:44;;;;;;;9.50;5.87;;;14.30;99.90;;;14.94;100.00;99075.47;5066186;28;20444;-81
2021/09/02 08:47:13;;;;;;;8.80;5.43;;;14.30;99.90;;;15.00;100.00;99084.41;5065864;28;20526;-81
2021/09/02 08:49:42;;;;;;;12.20;5.83;;;14.40;99.90;;;15.06;100.00;99081.84;5068874;28;20491;-81
2021/09/02 08:52:10;;;;;;;8.40;5.00;;;14.50;99.90;;;15.10;100.00;99083.09;5060682;28;20495;-81
2021/09/02 08:54:40;;;;;;;8.30;4.60;;;14.60;99.90;;;15.16;100.00;99078.09;5060249;28;20452;-80
2021/09/02 08:57:09;;;;;;;10.90;6.27;;;14.60;99.90;;;15.20;100.00;99081.97;5059850;28;20451;-81
2021/09/02 08:59:37;;;;;;;10.77;5.30;;;14.60;99.90;;;15.26;100.00;99084.66;5057517;28;20445;-81
2021/09/02 09:02:25;;;;;;;16.00;5.80;;;14.70;99.90;;;15.31;100.00;99078.78;5055695;28;20468;-81
2021/09/02 09:05:03;;;;;;;24.80;4.90;;;14.70;99.90;;;15.35;100.00;99066.84;5059493;28;20911;-81
2021/09/02 09:07:35;;;;;;;16.40;4.97;;;14.80;99.90;;;15.41;100.00;99066.91;5058746;28;20498;-81
2021/09/02 09:10:11;;;;;;;20.00;5.67;;;14.80;99.90;;;15.44;100.00;99066.53;5064624;28;20541;-81
2021/09/02 09:12:44;;;;;;;10.37;5.03;;;14.80;99.90;;;15.49;100.00;99068.59;5067963;28;20457;-81
2021/09/02 09:15:19;;;;;;;6.23;4.63;;;14.80;99.90;;;15.54;100.00;99067.03;5065348;28;20482;-81
2021/09/02 09:17:49;;;;;;;10.50;5.73;;;15.00;99.90;;;15.60;100.00;99061.00;5066786;28;20448;-81
2021/09/02 09:20:20;;;;;;;13.57;5.33;;;15.00;99.90;;;15.67;100.00;99061.03;5063043;28;20949;-81
2021/09/02 09:22:50;;;;;;;6.13;4.67;;;15.20;99.90;;;15.76;100.00;99065.13;5066881;28;20510;-81
2021/09/02 09:25:20;;;;;;;12.13;5.33;;;15.20;99.90;;;15.86;100.00;99062.16;5065503;28;20937;-81
2021/09/02 09:27:50;;;;;;;7.43;4.90;;;15.40;99.90;;;15.94;100.00;99061.97;5066266;28;20921;-81
2021/09/02 09:30:21;;;;;;;7.90;4.77;;;15.50;99.90;;;16.03;100.00;99059.00;5060255;28;20532;-81
2021/09/02 09:32:53;;;;;;;11.47;5.43;;;15.60;99.90;;;16.11;100.00;99060.63;5059724;28;20534;-81
2021/09/02 09:35:24;;;;;;;9.07;5.00;;;15.60;99.90;;;16.20;100.00;99056.81;5059634;28;20477;-82
2021/09/02 09:38:06;;;;;;;8.73;4.60;;;15.80;99.90;;;16.27;100.00;99051.56;5062206;28;20947;-80
2021/09/02 09:40:38;;;;;;;16.30;5.37;;;15.80;99.90;;;16.35;100.00;99057.44;5060145;28;20497;-81
2021/09/02 09:43:14;;;;;;;11.43;5.37;;;15.90;99.90;;;16.42;100.00;99052.19;5059764;28;20451;-81
2021/09/02 09:45:48;;;;;;;7.13;4.40;;;16.00;99.90;;;16.48;100.00;99048.75;5064506;28;20504;-81
2021/09/02 09:48:34;;;;;;;13.20;4.63;;;16.00;99.90;;;16.53;100.00;99036.56;5060864;28;20925;-81
2021/09/02 09:51:14;;;;;;;7.00;4.57;;;16.00;99.90;;;16.62;100.00;99049.63;5061203;28;20453;-81
2021/09/02 09:53:46;;;;;;;10.03;5.33;;;16.20;99.90;;;16.66;100.00;99049.00;5063780;28;20440;-80
2021/09/02 09:56:19;;;;;;;6.40;4.60;;;16.10;99.90;;;16.71;100.00;99045.78;5064973;28;20449;-81
2021/09/02 09:58:49;;;;;;;13.63;5.17;;;16.20;99.90;;;16.74;100.00;99037.44;5067736;28;20530;-81
2021/09/02 10:01:18;;;;;;;6.70;4.50;;;16.20;99.90;;;16.80;100.00;99041.94;5062910;28;20519;-81
2021/09/02 10:03:51;;;;;;;8.27;4.73;;;16.30;99.90;;;16.84;100.00;99041.31;5064582;28;20479;-81
2021/09/02 10:06:22;;;;;;;9.03;4.30;;;16.40;99.90;;;16.92;100.00;99025.28;5062440;28;20452;-81
2021/09/02 10:08:50;;;;;;;6.90;4.93;;;16.50;99.90;;;17.06;100.00;99026.09;5064513;28;20479;-81
2021/09/02 10:11:23;;;;;;;7.60;4.83;;;16.70;99.90;;;17.14;100.00;99017.97;5063881;28;20464;-81
2021/09/02 10:13:52;;;;;;;9.80;4.87;;;16.70;99.90;;;17.20;100.00;99022.41;5064006;28;20511;-81
2021/09/02 10:16:22;;;;;;;6.23;4.20;;;16.70;99.90;;;17.25;100.00;99014.66;5067453;28;20480;-81
2021/09/02 10:18:51;;;;;;;6.23;3.90;;;16.70;99.90;;;17.35;100.00;99020.38;5061569;28;20570;-81